sensor_id;sensor_type;location;lat;lon;timestamp;temperature;humidity
15483;DHT22;7843;50.330;7.312;2023-04-12T00:00:07;8.50;97.80
15483;DHT22;7843;50.330;7.312;2023-04-12T00:02:38;8.50;98.20
15483;DHT22;7843;50.330;7.312;2023-04-12T00:05:05;8.50;97.90
15483;DHT22;7843;50.330;7.312;2023-04-12T00:07:32;8.50;98.60
15483;DHT22;7843;50.330;7.312;2023-04-12T00:09:59;8.50;98.60
15483;DHT22;7843;50.330;7.312;2023-04-12T00:12:25;8.50;98.50
15483;DHT22;7843;50.330;7.312;2023-04-12T00:14:52;8.50;98.80
15483;DHT22;7843;50.330;7.312;2023-04-12T00:17:19;8.40;99.40
15483;DHT22;7843;50.330;7.312;2023-04-12T00:19:46;8.40;99.80
15483;DHT22;7843;50.330;7.312;2023-04-12T00:22:15;8.40;99.90
15483;DHT22;7843;50.330;7.312;2023-04-12T00:24:42;8.40;99.90
15483;DHT22;7843;50.330;7.312;2023-04-12T00:27:09;8.40;99.90
15483;DHT22;7843;50.330;7.312;2023-04-12T00:29:35;8.40;99.90
15483;DHT22;7843;50.330;7.312;2023-04-12T00:32:02;8.40;99.90
15483;DHT22;7843;50.330;7.312;2023-04-12T00:34:30;8.40;99.90
15483;DHT22;7843;50.330;7.312;2023-04-12T00:36:58;8.40;99.90
15483;DHT22;7843;50.330;7.312;2023-04-12T00:39:25;8.30;99.90
15483;DHT22;7843;50.330;7.312;2023-04-12T00:41:52;8.30;99.90
15483;DHT22;7843;50.330;7.312;2023-04-12T00:44:18;8.30;99.90
15483;DHT22;7843;50.330;7.312;2023-04-12T00:46:45;8.30;99.90
15483;DHT22;7843;50.330;7.312;2023-04-12T00:49:12;8.30;99.90
15483;DHT22;7843;50.330;7.312;2023-04-12T00:51:39;8.30;99.90
15483;DHT22;7843;50.330;7.312;2023-04-12T00:54:06;8.30;99.90
15483;DHT22;7843;50.330;7.312;2023-04-12T00:56:33;8.30;99.90
15483;DHT22;7843;50.330;7.312;2023-04-12T00:59:00;8.30;99.90
15483;DHT22;7843;50.330;7.312;2023-04-12T01:01:27;8.30;99.90
15483;DHT22;7843;50.330;7.312;2023-04-12T01:03:54;8.30;99.90
15483;DHT22;7843;50.330;7.312;2023-04-12T01:09:22;8.30;99.90
15483;DHT22;7843;50.330;7.312;2023-04-12T01:17:24;8.10;99.90
15483;DHT22;7843;50.330;7.312;2023-04-12T01:20:06;8.10;99.90
15483;DHT22;7843;50.330;7.312;2023-04-12T01:25:55;8.10;99.90
15483;DHT22;7843;50.330;7.312;2023-04-12T01:28:31;8.10;99.90
15483;DHT22;7843;50.330;7.312;2023-04-12T01:31:01;8.00;99.90
15483;DHT22;7843;50.330;7.312;2023-04-12T01:33:29;8.10;99.90
15483;DHT22;7843;50.330;7.312;2023-04-12T01:36:00;8.10;99.90
15483;DHT22;7843;50.330;7.312;2023-04-12T01:38:29;8.00;99.90
15483;DHT22;7843;50.330;7.312;2023-04-12T01:40:56;8.00;99.90
15483;DHT22;7843;50.330;7.312;2023-04-12T01:43:23;8.00;99.90
15483;DHT22;7843;50.330;7.312;2023-04-12T01:45:50;8.00;99.90
15483;DHT22;7843;50.330;7.312;2023-04-12T01:48:17;8.00;99.90
15483;DHT22;7843;50.330;7.312;2023-04-12T01:55:52;8.00;99.90
15483;DHT22;7843;50.330;7.312;2023-04-12T01:58:23;7.90;99.90
15483;DHT22;7843;50.330;7.312;2023-04-12T02:00:51;7.90;99.90
15483;DHT22;7843;50.330;7.312;2023-04-12T02:03:19;7.90;99.90
15483;DHT22;7843;50.330;7.312;2023-04-12T02:05:48;7.90;99.90
15483;DHT22;7843;50.330;7.312;2023-04-12T02:08:15;7.90;99.90
15483;DHT22;7843;50.330;7.312;2023-04-12T02:10:42;7.90;99.90
15483;DHT22;7843;50.330;7.312;2023-04-12T02:13:09;7.90;99.90
15483;DHT22;7843;50.330;7.312;2023-04-12T02:15:35;7.90;99.90
15483;DHT22;7843;50.330;7.312;2023-04-12T02:18:02;7.90;99.90
15483;DHT22;7843;50.330;7.312;2023-04-12T02:20:30;7.90;99.90
15483;DHT22;7843;50.330;7.312;2023-04-12T02:22:56;7.90;99.90
15483;DHT22;7843;50.330;7.312;2023-04-12T02:25:23;7.80;99.90
15483;DHT22;7843;50.330;7.312;2023-04-12T02:27:50;7.80;99.90
15483;DHT22;7843;50.330;7.312;2023-04-12T02:30:16;7.80;99.90
15483;DHT22;7843;50.330;7.312;2023-04-12T02:32:44;7.80;99.90
15483;DHT22;7843;50.330;7.312;2023-04-12T02:35:12;7.80;99.90
15483;DHT22;7843;50.330;7.312;2023-04-12T02:37:39;7.90;99.90
15483;DHT22;7843;50.330;7.312;2023-04-12T02:40:07;7.80;99.90
15483;DHT22;7843;50.330;7.312;2023-04-12T02:42:36;7.80;99.90
15483;DHT22;7843;50.330;7.312;2023-04-12T02:45:03;7.80;99.90
15483;DHT22;7843;50.330;7.312;2023-04-12T02:47:30;7.80;99.90
15483;DHT22;7843;50.330;7.312;2023-04-12T02:49:57;7.70;99.90
15483;DHT22;7843;50.330;7.312;2023-04-12T02:56:05;7.70;99.90
15483;DHT22;7843;50.330;7.312;2023-04-12T02:58:35;7.70;99.90
15483;DHT22;7843;50.330;7.312;2023-04-12T03:01:02;7.70;99.90
15483;DHT22;7843;50.330;7.312;2023-04-12T03:03:33;7.70;99.90
15483;DHT22;7843;50.330;7.312;2023-04-12T03:06:00;7.60;99.90
15483;DHT22;7843;50.330;7.312;2023-04-12T03:08:27;7.70;99.90
15483;DHT22;7843;50.330;7.312;2023-04-12T03:10:54;7.60;99.90
15483;DHT22;7843;50.330;7.312;2023-04-12T03:13:21;7.60;99.90
15483;DHT22;7843;50.330;7.312;2023-04-12T03:15:48;7.60;99.90
15483;DHT22;7843;50.330;7.312;2023-04-12T03:18:18;7.60;99.90
15483;DHT22;7843;50.330;7.312;2023-04-12T03:20:46;7.60;99.90
15483;DHT22;7843;50.330;7.312;2023-04-12T03:23:13;7.60;99.90
15483;DHT22;7843;50.330;7.312;2023-04-12T03:25:40;7.60;99.90
15483;DHT22;7843;50.330;7.312;2023-04-12T03:28:07;7.60;99.90
15483;DHT22;7843;50.330;7.312;2023-04-12T03:30:34;7.60;99.90
15483;DHT22;7843;50.330;7.312;2023-04-12T03:33:01;7.50;99.90
15483;DHT22;7843;50.330;7.312;2023-04-12T03:35:27;7.50;99.90
15483;DHT22;7843;50.330;7.312;2023-04-12T03:37:54;7.50;99.90
15483;DHT22;7843;50.330;7.312;2023-04-12T03:40:21;7.50;99.90
15483;DHT22;7843;50.330;7.312;2023-04-12T03:42:48;7.50;99.90
15483;DHT22;7843;50.330;7.312;2023-04-12T03:45:14;7.50;99.90
15483;DHT22;7843;50.330;7.312;2023-04-12T03:47:41;7.50;99.90
15483;DHT22;7843;50.330;7.312;2023-04-12T03:50:08;7.50;99.90
15483;DHT22;7843;50.330;7.312;2023-04-12T03:52:37;7.60;99.90
15483;DHT22;7843;50.330;7.312;2023-04-12T03:55:04;7.60;99.90
15483;DHT22;7843;50.330;7.312;2023-04-12T03:57:32;7.50;99.90
15483;DHT22;7843;50.330;7.312;2023-04-12T03:59:59;7.50;99.90
15483;DHT22;7843;50.330;7.312;2023-04-12T04:02:26;7.50;99.90
15483;DHT22;7843;50.330;7.312;2023-04-12T04:04:53;7.60;99.90
15483;DHT22;7843;50.330;7.312;2023-04-12T04:07:20;7.50;99.90
15483;DHT22;7843;50.330;7.312;2023-04-12T04:09:47;7.50;99.90
15483;DHT22;7843;50.330;7.312;2023-04-12T04:12:15;7.60;99.90
15483;DHT22;7843;50.330;7.312;2023-04-12T04:14:42;7.60;99.90
15483;DHT22;7843;50.330;7.312;2023-04-12T04:17:09;7.60;99.90
15483;DHT22;7843;50.330;7.312;2023-04-12T04:19:35;7.60;99.90
15483;DHT22;7843;50.330;7.312;2023-04-12T04:22:02;7.60;99.90
15483;DHT22;7843;50.330;7.312;2023-04-12T04:24:30;7.60;99.90
15483;DHT22;7843;50.330;7.312;2023-04-12T04:26:56;7.70;99.90
15483;DHT22;7843;50.330;7.312;2023-04-12T04:29:24;7.70;99.90
15483;DHT22;7843;50.330;7.312;2023-04-12T04:31:51;7.70;99.90
15483;DHT22;7843;50.330;7.312;2023-04-12T04:34:19;7.70;99.90
15483;DHT22;7843;50.330;7.312;2023-04-12T04:36:47;7.70;99.90
15483;DHT22;7843;50.330;7.312;2023-04-12T04:39:14;7.70;99.90
15483;DHT22;7843;50.330;7.312;2023-04-12T04:41:41;7.60;99.90
15483;DHT22;7843;50.330;7.312;2023-04-12T04:44:08;7.70;99.90
15483;DHT22;7843;50.330;7.312;2023-04-12T04:46:38;7.70;99.90
15483;DHT22;7843;50.330;7.312;2023-04-12T04:49:05;7.70;99.90
15483;DHT22;7843;50.330;7.312;2023-04-12T04:51:32;7.60;99.90
15483;DHT22;7843;50.330;7.312;2023-04-12T04:53:59;7.60;99.90
15483;DHT22;7843;50.330;7.312;2023-04-12T04:56:26;7.60;99.90
15483;DHT22;7843;50.330;7.312;2023-04-12T04:58:52;7.60;99.90
15483;DHT22;7843;50.330;7.312;2023-04-12T05:01:20;7.70;99.90
15483;DHT22;7843;50.330;7.312;2023-04-12T05:03:51;7.60;99.90
15483;DHT22;7843;50.330;7.312;2023-04-12T05:06:17;7.70;99.90
15483;DHT22;7843;50.330;7.312;2023-04-12T05:08:44;7.70;99.90
15483;DHT22;7843;50.330;7.312;2023-04-12T05:11:11;7.70;99.90
15483;DHT22;7843;50.330;7.312;2023-04-12T05:13:37;7.70;99.90
15483;DHT22;7843;50.330;7.312;2023-04-12T05:16:06;7.60;99.90
15483;DHT22;7843;50.330;7.312;2023-04-12T05:18:33;7.70;99.90
15483;DHT22;7843;50.330;7.312;2023-04-12T05:21:03;7.70;99.90
15483;DHT22;7843;50.330;7.312;2023-04-12T05:23:41;7.70;99.90
15483;DHT22;7843;50.330;7.312;2023-04-12T05:26:08;7.70;99.90
15483;DHT22;7843;50.330;7.312;2023-04-12T05:28:35;7.70;99.90
15483;DHT22;7843;50.330;7.312;2023-04-12T05:31:01;7.70;99.90
15483;DHT22;7843;50.330;7.312;2023-04-12T05:33:28;7.70;99.90
15483;DHT22;7843;50.330;7.312;2023-04-12T05:35:56;7.80;99.90
15483;DHT22;7843;50.330;7.312;2023-04-12T05:38:22;7.80;99.90
15483;DHT22;7843;50.330;7.312;2023-04-12T05:40:49;7.80;99.90
15483;DHT22;7843;50.330;7.312;2023-04-12T05:43:16;7.80;99.90
15483;DHT22;7843;50.330;7.312;2023-04-12T05:45:43;7.80;99.90
15483;DHT22;7843;50.330;7.312;2023-04-12T05:48:10;7.80;99.90
15483;DHT22;7843;50.330;7.312;2023-04-12T05:50:37;7.80;99.90
15483;DHT22;7843;50.330;7.312;2023-04-12T05:53:03;7.80;99.90
15483;DHT22;7843;50.330;7.312;2023-04-12T05:55:30;7.80;99.90
15483;DHT22;7843;50.330;7.312;2023-04-12T05:57:57;7.90;99.90
15483;DHT22;7843;50.330;7.312;2023-04-12T06:00:24;7.90;99.90
15483;DHT22;7843;50.330;7.312;2023-04-12T06:02:51;7.90;99.90
15483;DHT22;7843;50.330;7.312;2023-04-12T06:05:18;7.90;99.90
15483;DHT22;7843;50.330;7.312;2023-04-12T06:07:45;7.90;99.90
15483;DHT22;7843;50.330;7.312;2023-04-12T06:10:15;7.90;99.90
15483;DHT22;7843;50.330;7.312;2023-04-12T06:12:43;7.90;99.90
15483;DHT22;7843;50.330;7.312;2023-04-12T06:15:10;7.90;99.90
15483;DHT22;7843;50.330;7.312;2023-04-12T06:17:37;8.00;99.90
15483;DHT22;7843;50.330;7.312;2023-04-12T06:20:04;7.90;99.90
15483;DHT22;7843;50.330;7.312;2023-04-12T06:22:33;7.90;99.90
15483;DHT22;7843;50.330;7.312;2023-04-12T06:25:00;8.00;99.90
15483;DHT22;7843;50.330;7.312;2023-04-12T06:27:27;8.00;99.90
15483;DHT22;7843;50.330;7.312;2023-04-12T06:29:53;8.00;99.90
15483;DHT22;7843;50.330;7.312;2023-04-12T06:32:20;8.00;99.90
15483;DHT22;7843;50.330;7.312;2023-04-12T06:34:47;8.00;99.90
15483;DHT22;7843;50.330;7.312;2023-04-12T06:37:14;8.00;99.90
15483;DHT22;7843;50.330;7.312;2023-04-12T06:39:41;8.00;99.90
15483;DHT22;7843;50.330;7.312;2023-04-12T06:42:08;8.10;99.90
15483;DHT22;7843;50.330;7.312;2023-04-12T06:44:34;8.20;99.90
15483;DHT22;7843;50.330;7.312;2023-04-12T06:47:01;8.20;99.90
15483;DHT22;7843;50.330;7.312;2023-04-12T06:49:28;8.20;99.90
15483;DHT22;7843;50.330;7.312;2023-04-12T06:51:54;8.30;99.90
15483;DHT22;7843;50.330;7.312;2023-04-12T06:54:21;8.30;99.90
15483;DHT22;7843;50.330;7.312;2023-04-12T06:56:49;8.30;99.90
15483;DHT22;7843;50.330;7.312;2023-04-12T06:59:16;8.40;99.90
15483;DHT22;7843;50.330;7.312;2023-04-12T07:01:43;8.40;99.90
15483;DHT22;7843;50.330;7.312;2023-04-12T07:04:10;8.40;99.90
15483;DHT22;7843;50.330;7.312;2023-04-12T07:06:41;8.50;99.90
15483;DHT22;7843;50.330;7.312;2023-04-12T07:09:08;8.50;99.90
15483;DHT22;7843;50.330;7.312;2023-04-12T07:11:35;8.60;99.90
15483;DHT22;7843;50.330;7.312;2023-04-12T07:14:02;8.50;99.90
15483;DHT22;7843;50.330;7.312;2023-04-12T07:16:29;8.50;99.90
15483;DHT22;7843;50.330;7.312;2023-04-12T07:18:59;8.60;99.90
15483;DHT22;7843;50.330;7.312;2023-04-12T07:21:26;8.70;99.90
15483;DHT22;7843;50.330;7.312;2023-04-12T07:23:54;8.60;99.90
15483;DHT22;7843;50.330;7.312;2023-04-12T07:26:21;8.70;99.90
15483;DHT22;7843;50.330;7.312;2023-04-12T07:28:47;8.70;99.90
15483;DHT22;7843;50.330;7.312;2023-04-12T07:31:14;8.70;99.90
15483;DHT22;7843;50.330;7.312;2023-04-12T07:33:41;8.70;99.90
15483;DHT22;7843;50.330;7.312;2023-04-12T07:36:08;8.80;99.90
15483;DHT22;7843;50.330;7.312;2023-04-12T07:38:35;8.80;99.90
15483;DHT22;7843;50.330;7.312;2023-04-12T07:41:02;8.90;99.90
15483;DHT22;7843;50.330;7.312;2023-04-12T07:43:28;8.90;99.90
15483;DHT22;7843;50.330;7.312;2023-04-12T07:45:55;9.00;99.90
15483;DHT22;7843;50.330;7.312;2023-04-12T07:48:22;9.00;99.90
15483;DHT22;7843;50.330;7.312;2023-04-12T07:50:49;9.10;99.90
15483;DHT22;7843;50.330;7.312;2023-04-12T07:53:20;9.20;99.90
15483;DHT22;7843;50.330;7.312;2023-04-12T07:55:47;9.20;99.90
15483;DHT22;7843;50.330;7.312;2023-04-12T07:58:15;9.20;99.90
15483;DHT22;7843;50.330;7.312;2023-04-12T08:00:43;9.20;99.90
15483;DHT22;7843;50.330;7.312;2023-04-12T08:03:11;9.30;99.90
15483;DHT22;7843;50.330;7.312;2023-04-12T08:05:38;9.40;99.90
15483;DHT22;7843;50.330;7.312;2023-04-12T08:08:06;9.50;99.90
15483;DHT22;7843;50.330;7.312;2023-04-12T08:10:33;9.50;99.90
15483;DHT22;7843;50.330;7.312;2023-04-12T08:13:00;9.60;99.90
15483;DHT22;7843;50.330;7.312;2023-04-12T08:15:27;9.70;99.90
15483;DHT22;7843;50.330;7.312;2023-04-12T08:17:53;9.80;99.90
15483;DHT22;7843;50.330;7.312;2023-04-12T08:20:20;9.80;99.90
15483;DHT22;7843;50.330;7.312;2023-04-12T08:22:47;9.90;99.90
15483;DHT22;7843;50.330;7.312;2023-04-12T08:25:14;10.00;99.90
15483;DHT22;7843;50.330;7.312;2023-04-12T08:27:42;10.00;99.90
15483;DHT22;7843;50.330;7.312;2023-04-12T08:30:09;10.00;99.90
15483;DHT22;7843;50.330;7.312;2023-04-12T08:32:37;10.00;99.90
15483;DHT22;7843;50.330;7.312;2023-04-12T08:35:05;10.10;99.90
15483;DHT22;7843;50.330;7.312;2023-04-12T08:37:32;10.20;99.90
15483;DHT22;7843;50.330;7.312;2023-04-12T08:40:03;10.20;99.90
15483;DHT22;7843;50.330;7.312;2023-04-12T08:42:33;10.30;99.90
15483;DHT22;7843;50.330;7.312;2023-04-12T08:45:04;10.30;99.90
15483;DHT22;7843;50.330;7.312;2023-04-12T08:47:33;10.30;99.90
15483;DHT22;7843;50.330;7.312;2023-04-12T08:50:00;10.40;99.90
15483;DHT22;7843;50.330;7.312;2023-04-12T08:52:33;10.40;99.90
15483;DHT22;7843;50.330;7.312;2023-04-12T08:55:05;10.40;99.90
15483;DHT22;7843;50.330;7.312;2023-04-12T08:57:31;10.50;99.90
15483;DHT22;7843;50.330;7.312;2023-04-12T09:00:01;10.50;99.90
15483;DHT22;7843;50.330;7.312;2023-04-12T09:02:28;10.50;99.90
15483;DHT22;7843;50.330;7.312;2023-04-12T09:04:55;10.60;99.90
15483;DHT22;7843;50.330;7.312;2023-04-12T09:07:22;10.70;99.90
15483;DHT22;7843;50.330;7.312;2023-04-12T09:09:49;10.80;99.90
15483;DHT22;7843;50.330;7.312;2023-04-12T09:12:16;10.80;99.90
15483;DHT22;7843;50.330;7.312;2023-04-12T09:14:45;10.90;99.90
15483;DHT22;7843;50.330;7.312;2023-04-12T09:17:26;10.90;99.90
15483;DHT22;7843;50.330;7.312;2023-04-12T09:19:53;11.00;99.90
15483;DHT22;7843;50.330;7.312;2023-04-12T09:22:33;11.00;99.90
15483;DHT22;7843;50.330;7.312;2023-04-12T09:25:00;11.00;99.90
15483;DHT22;7843;50.330;7.312;2023-04-12T09:27:27;11.00;99.90
15483;DHT22;7843;50.330;7.312;2023-04-12T09:30:08;11.10;99.90
15483;DHT22;7843;50.330;7.312;2023-04-12T09:32:35;11.20;99.90
15483;DHT22;7843;50.330;7.312;2023-04-12T09:35:02;11.20;99.90
15483;DHT22;7843;50.330;7.312;2023-04-12T09:37:30;11.30;99.90
15483;DHT22;7843;50.330;7.312;2023-04-12T09:40:07;11.30;99.90
15483;DHT22;7843;50.330;7.312;2023-04-12T09:42:35;11.40;99.90
15483;DHT22;7843;50.330;7.312;2023-04-12T09:45:22;11.30;99.90
15483;DHT22;7843;50.330;7.312;2023-04-12T09:47:50;11.30;99.90
15483;DHT22;7843;50.330;7.312;2023-04-12T09:50:24;11.30;99.90
15483;DHT22;7843;50.330;7.312;2023-04-12T09:52:52;11.40;99.90
15483;DHT22;7843;50.330;7.312;2023-04-12T09:55:23;11.40;99.90
15483;DHT22;7843;50.330;7.312;2023-04-12T09:57:51;11.50;99.90
15483;DHT22;7843;50.330;7.312;2023-04-12T10:00:21;11.60;99.90
15483;DHT22;7843;50.330;7.312;2023-04-12T10:02:50;11.70;99.90
15483;DHT22;7843;50.330;7.312;2023-04-12T10:05:20;11.80;99.90
15483;DHT22;7843;50.330;7.312;2023-04-12T10:07:47;11.80;99.90
15483;DHT22;7843;50.330;7.312;2023-04-12T10:10:15;11.80;99.90
15483;DHT22;7843;50.330;7.312;2023-04-12T10:12:44;11.80;99.90
15483;DHT22;7843;50.330;7.312;2023-04-12T10:15:13;11.80;99.90
15483;DHT22;7843;50.330;7.312;2023-04-12T10:17:52;11.80;99.90
15483;DHT22;7843;50.330;7.312;2023-04-12T10:20:20;11.70;99.90
15483;DHT22;7843;50.330;7.312;2023-04-12T10:22:49;11.60;99.90
15483;DHT22;7843;50.330;7.312;2023-04-12T10:25:21;11.60;99.90
15483;DHT22;7843;50.330;7.312;2023-04-12T10:27:48;11.50;99.90
15483;DHT22;7843;50.330;7.312;2023-04-12T10:30:19;11.60;99.90
15483;DHT22;7843;50.330;7.312;2023-04-12T10:32:47;11.70;99.90
15483;DHT22;7843;50.330;7.312;2023-04-12T10:35:14;11.90;99.90
15483;DHT22;7843;50.330;7.312;2023-04-12T10:38:01;11.90;99.90
15483;DHT22;7843;50.330;7.312;2023-04-12T10:40:28;12.00;99.90
15483;DHT22;7843;50.330;7.312;2023-04-12T10:43:23;11.90;99.90
15483;DHT22;7843;50.330;7.312;2023-04-12T10:45:50;11.90;99.90
15483;DHT22;7843;50.330;7.312;2023-04-12T10:48:39;12.00;99.90
15483;DHT22;7843;50.330;7.312;2023-04-12T10:51:23;12.00;99.90
15483;DHT22;7843;50.330;7.312;2023-04-12T10:56:43;12.00;99.90
15483;DHT22;7843;50.330;7.312;2023-04-12T10:59:12;12.00;99.90
15483;DHT22;7843;50.330;7.312;2023-04-12T11:01:40;12.10;99.90
15483;DHT22;7843;50.330;7.312;2023-04-12T11:04:18;12.30;99.90
15483;DHT22;7843;50.330;7.312;2023-04-12T11:14:37;13.00;99.90
15483;DHT22;7843;50.330;7.312;2023-04-12T11:19:42;13.60;99.90
15483;DHT22;7843;50.330;7.312;2023-04-12T11:22:14;13.80;99.90
15483;DHT22;7843;50.330;7.312;2023-04-12T11:24:46;14.00;99.90
15483;DHT22;7843;50.330;7.312;2023-04-12T11:27:14;14.30;99.90
15483;DHT22;7843;50.330;7.312;2023-04-12T11:29:44;14.50;99.90
15483;DHT22;7843;50.330;7.312;2023-04-12T11:32:13;14.70;99.90
15483;DHT22;7843;50.330;7.312;2023-04-12T11:34:41;14.90;99.30
15483;DHT22;7843;50.330;7.312;2023-04-12T11:37:09;15.10;98.70
15483;DHT22;7843;50.330;7.312;2023-04-12T11:39:39;15.40;99.40
15483;DHT22;7843;50.330;7.312;2023-04-12T11:42:11;15.80;97.30
15483;DHT22;7843;50.330;7.312;2023-04-12T11:44:39;16.20;95.40
15483;DHT22;7843;50.330;7.312;2023-04-12T11:47:19;16.30;94.70
15483;DHT22;7843;50.330;7.312;2023-04-12T11:49:54;16.40;96.30
15483;DHT22;7843;50.330;7.312;2023-04-12T11:52:28;16.50;96.10
15483;DHT22;7843;50.330;7.312;2023-04-12T11:54:55;16.60;95.30
15483;DHT22;7843;50.330;7.312;2023-04-12T11:57:24;16.90;92.10
15483;DHT22;7843;50.330;7.312;2023-04-12T11:59:51;17.30;90.30
15483;DHT22;7843;50.330;7.312;2023-04-12T12:02:19;17.30;90.70
15483;DHT22;7843;50.330;7.312;2023-04-12T12:04:48;17.20;92.50
15483;DHT22;7843;50.330;7.312;2023-04-12T12:07:16;17.80;92.40
15483;DHT22;7843;50.330;7.312;2023-04-12T12:09:44;18.50;89.40
15483;DHT22;7843;50.330;7.312;2023-04-12T12:12:12;19.00;85.80
15483;DHT22;7843;50.330;7.312;2023-04-12T12:14:40;20.30;87.00
15483;DHT22;7843;50.330;7.312;2023-04-12T12:17:11;20.70;84.50
15483;DHT22;7843;50.330;7.312;2023-04-12T12:19:39;21.30;81.30
15483;DHT22;7843;50.330;7.312;2023-04-12T12:22:17;21.50;80.80
15483;DHT22;7843;50.330;7.312;2023-04-12T12:25:04;21.40;79.60
15483;DHT22;7843;50.330;7.312;2023-04-12T12:27:38;20.20;78.40
15483;DHT22;7843;50.330;7.312;2023-04-12T12:30:07;19.60;81.60
15483;DHT22;7843;50.330;7.312;2023-04-12T12:32:36;19.00;84.00
15483;DHT22;7843;50.330;7.312;2023-04-12T12:35:13;19.00;82.10
15483;DHT22;7843;50.330;7.312;2023-04-12T12:37:51;20.20;80.00
15483;DHT22;7843;50.330;7.312;2023-04-12T12:42:55;23.70;71.40
15483;DHT22;7843;50.330;7.312;2023-04-12T12:45:23;24.80;70.10
15483;DHT22;7843;50.330;7.312;2023-04-12T12:47:54;24.10;70.70
15483;DHT22;7843;50.330;7.312;2023-04-12T12:50:23;23.20;71.50
15483;DHT22;7843;50.330;7.312;2023-04-12T12:52:51;23.30;69.70
15483;DHT22;7843;50.330;7.312;2023-04-12T12:55:18;23.00;69.50
15483;DHT22;7843;50.330;7.312;2023-04-12T12:57:47;22.00;73.20
15483;DHT22;7843;50.330;7.312;2023-04-12T13:00:23;20.60;78.70
15483;DHT22;7843;50.330;7.312;2023-04-12T13:02:50;19.40;80.80
15483;DHT22;7843;50.330;7.312;2023-04-12T13:05:18;18.60;84.30
15483;DHT22;7843;50.330;7.312;2023-04-12T13:07:46;17.70;87.70
15483;DHT22;7843;50.330;7.312;2023-04-12T13:10:13;17.00;86.70
15483;DHT22;7843;50.330;7.312;2023-04-12T13:12:40;16.50;89.10
15483;DHT22;7843;50.330;7.312;2023-04-12T13:15:06;16.00;89.10
15483;DHT22;7843;50.330;7.312;2023-04-12T13:17:43;15.50;92.60
15483;DHT22;7843;50.330;7.312;2023-04-12T13:20:10;15.30;93.40
15483;DHT22;7843;50.330;7.312;2023-04-12T13:22:36;15.10;93.50
15483;DHT22;7843;50.330;7.312;2023-04-12T13:25:03;15.00;91.50
15483;DHT22;7843;50.330;7.312;2023-04-12T13:27:30;15.10;92.10
15483;DHT22;7843;50.330;7.312;2023-04-12T13:29:57;15.50;92.60
15483;DHT22;7843;50.330;7.312;2023-04-12T13:32:23;16.80;91.40
15483;DHT22;7843;50.330;7.312;2023-04-12T13:34:50;17.90;90.20
15483;DHT22;7843;50.330;7.312;2023-04-12T13:37:17;19.50;85.20
15483;DHT22;7843;50.330;7.312;2023-04-12T13:39:44;19.60;77.40
15483;DHT22;7843;50.330;7.312;2023-04-12T13:42:10;19.30;78.30
15483;DHT22;7843;50.330;7.312;2023-04-12T13:44:37;18.90;81.60
15483;DHT22;7843;50.330;7.312;2023-04-12T13:47:04;18.20;83.20
15483;DHT22;7843;50.330;7.312;2023-04-12T13:49:31;17.70;86.00
15483;DHT22;7843;50.330;7.312;2023-04-12T13:51:57;17.30;85.70
15483;DHT22;7843;50.330;7.312;2023-04-12T13:54:24;17.20;87.40
15483;DHT22;7843;50.330;7.312;2023-04-12T13:56:51;17.50;87.70
15483;DHT22;7843;50.330;7.312;2023-04-12T13:59:18;17.50;86.60
15483;DHT22;7843;50.330;7.312;2023-04-12T14:01:44;17.30;89.10
15483;DHT22;7843;50.330;7.312;2023-04-12T14:04:11;16.70;91.80
15483;DHT22;7843;50.330;7.312;2023-04-12T14:06:38;16.10;94.10
15483;DHT22;7843;50.330;7.312;2023-04-12T14:09:04;15.80;94.00
15483;DHT22;7843;50.330;7.312;2023-04-12T14:11:44;15.70;95.20
15483;DHT22;7843;50.330;7.312;2023-04-12T14:14:12;15.50;93.60
15483;DHT22;7843;50.330;7.312;2023-04-12T14:16:40;15.20;89.00
15483;DHT22;7843;50.330;7.312;2023-04-12T14:19:08;14.60;88.40
15483;DHT22;7843;50.330;7.312;2023-04-12T14:21:34;14.50;89.40
15483;DHT22;7843;50.330;7.312;2023-04-12T14:24:02;14.50;87.80
15483;DHT22;7843;50.330;7.312;2023-04-12T14:26:28;14.40;88.30
15483;DHT22;7843;50.330;7.312;2023-04-12T14:28:55;14.30;87.50
15483;DHT22;7843;50.330;7.312;2023-04-12T14:31:22;15.30;90.10
15483;DHT22;7843;50.330;7.312;2023-04-12T14:33:49;16.60;82.80
15483;DHT22;7843;50.330;7.312;2023-04-12T14:36:16;16.50;79.70
15483;DHT22;7843;50.330;7.312;2023-04-12T14:38:43;17.90;79.60
15483;DHT22;7843;50.330;7.312;2023-04-12T14:41:10;19.50;76.40
15483;DHT22;7843;50.330;7.312;2023-04-12T14:43:37;20.80;72.00
15483;DHT22;7843;50.330;7.312;2023-04-12T14:46:04;21.60;68.10
15483;DHT22;7843;50.330;7.312;2023-04-12T14:48:31;22.60;67.20
15483;DHT22;7843;50.330;7.312;2023-04-12T14:50:58;23.20;66.80
15483;DHT22;7843;50.330;7.312;2023-04-12T14:53:24;22.90;64.70
15483;DHT22;7843;50.330;7.312;2023-04-12T14:55:51;21.10;69.70
15483;DHT22;7843;50.330;7.312;2023-04-12T14:58:18;20.10;72.80
15483;DHT22;7843;50.330;7.312;2023-04-12T15:00:44;19.20;72.10
15483;DHT22;7843;50.330;7.312;2023-04-12T15:03:11;18.00;73.80
15483;DHT22;7843;50.330;7.312;2023-04-12T15:05:38;18.50;76.00
15483;DHT22;7843;50.330;7.312;2023-04-12T15:08:04;20.10;69.10
15483;DHT22;7843;50.330;7.312;2023-04-12T15:10:31;21.50;65.10
15483;DHT22;7843;50.330;7.312;2023-04-12T15:12:58;22.60;64.90
15483;DHT22;7843;50.330;7.312;2023-04-12T15:15:25;23.10;63.60
15483;DHT22;7843;50.330;7.312;2023-04-12T15:17:51;23.50;63.10
15483;DHT22;7843;50.330;7.312;2023-04-12T15:20:18;23.70;60.10
15483;DHT22;7843;50.330;7.312;2023-04-12T15:22:45;23.50;59.10
15483;DHT22;7843;50.330;7.312;2023-04-12T15:25:11;23.40;58.30
15483;DHT22;7843;50.330;7.312;2023-04-12T15:27:38;23.30;57.00
15483;DHT22;7843;50.330;7.312;2023-04-12T15:30:05;23.00;58.40
15483;DHT22;7843;50.330;7.312;2023-04-12T15:32:35;22.70;59.20
15483;DHT22;7843;50.330;7.312;2023-04-12T15:35:03;21.90;58.60
15483;DHT22;7843;50.330;7.312;2023-04-12T15:37:34;21.00;59.30
15483;DHT22;7843;50.330;7.312;2023-04-12T15:40:02;19.50;61.70
15483;DHT22;7843;50.330;7.312;2023-04-12T15:42:42;19.00;65.60
15483;DHT22;7843;50.330;7.312;2023-04-12T15:45:10;19.50;65.70
15483;DHT22;7843;50.330;7.312;2023-04-12T15:47:38;20.30;63.30
15483;DHT22;7843;50.330;7.312;2023-04-12T15:50:06;19.70;61.70
15483;DHT22;7843;50.330;7.312;2023-04-12T15:52:33;19.40;62.50
15483;DHT22;7843;50.330;7.312;2023-04-12T15:55:01;18.80;61.90
15483;DHT22;7843;50.330;7.312;2023-04-12T15:57:30;18.60;59.80
15483;DHT22;7843;50.330;7.312;2023-04-12T15:59:58;18.40;61.20
15483;DHT22;7843;50.330;7.312;2023-04-12T16:02:25;18.40;62.40
15483;DHT22;7843;50.330;7.312;2023-04-12T16:04:52;18.20;62.50
15483;DHT22;7843;50.330;7.312;2023-04-12T16:07:21;18.20;62.90
15483;DHT22;7843;50.330;7.312;2023-04-12T16:09:48;18.30;62.70
15483;DHT22;7843;50.330;7.312;2023-04-12T16:12:14;17.90;62.30
15483;DHT22;7843;50.330;7.312;2023-04-12T16:14:41;17.80;60.50
15483;DHT22;7843;50.330;7.312;2023-04-12T16:17:08;17.30;63.90
15483;DHT22;7843;50.330;7.312;2023-04-12T16:19:35;16.80;63.90
15483;DHT22;7843;50.330;7.312;2023-04-12T16:22:02;16.60;65.70
15483;DHT22;7843;50.330;7.312;2023-04-12T16:24:29;15.90;65.80
15483;DHT22;7843;50.330;7.312;2023-04-12T16:26:55;15.30;66.80
15483;DHT22;7843;50.330;7.312;2023-04-12T16:29:22;14.70;68.20
15483;DHT22;7843;50.330;7.312;2023-04-12T16:31:49;14.40;70.60
15483;DHT22;7843;50.330;7.312;2023-04-12T16:34:17;14.00;73.80
15483;DHT22;7843;50.330;7.312;2023-04-12T16:36:47;13.50;76.60